Airfield :
LOGIN :

Register | Disclaimer

   EN    FR    IT 

 










Legend :    VFR   Marginal VFR   IFR   Intensive IFR   Very Intensive IFR
Visi :
Ceiling :
>= 8 km
>= 3000ft
5 to 8 km
1000 to 3000 ft
1500m to 5 km
500 to 1000 ft
800 to 1500m
200 to 500 ft
< 800m
< 200 ft
Symbols :   Thunderstorms  Fog  Heavy snow  Heavy precipitations  Wind > 20 kt
SIGMETs :     Misc.  Thunderstorms  Icing  Turbulence  Mountain Waves  Volcanic Ashes







- Airport Elevation : 876 ft
- IATA code : MBX


LJMB - Maribor

CURRENT METAR :
  • 211530Z 36009KT 9999 FEW050 BKN070 17/06 Q1018

EXPIRED METARs :
  • 211500Z 35008KT 9999 FEW050 BKN070 18/05 Q1018
  • 211430Z 34011KT 300V360 9999 SCT050 18/05 Q1017
  • 211400Z 33010KT 300V020 9999 SCT050 18/04 Q1017
  • 211330Z 35010KT 300V010 9999 FEW043 SCT060 19/06 Q1017
  • 211300Z 34010KT 320V020 9999 FEW043 SCT060 18/05 Q1017
  • 211230Z 36012KT 9999 SCT050 18/05 Q1018

TAF TAF LJMB
Valid from the 21 at 15:00 until the 22 at 15:00 UTC


211400Z 2115/2215 36010KT CAVOK
TEMPO 2115/2118 35015KT
BECMG 2118/2121 36005KT
No reported NOTAMs for that airfield.



MET'MAP, your aeronautical weather chart ! - Copyright ORBIFLY December 2007 - Disclaimer

ORBIFLY MET'MAP TEAM :

Programming & Development : Alexandra Zaïnal
Concept & Development : Baudouin d'Aumeries
Co-Development & Prog : Marc-Olivier Méhu
Technical & hardware support : Manuel Goepfert

Contact : metmap@orbifly.com




SOURCES & CREDITS :

   NOAA